createdAt,value
2019-06-08T00:00:20.789Z,95815.35
2019-06-08T00:02:50.037Z,95810.20
2019-06-08T00:05:19.238Z,95803.56
2019-06-08T00:07:48.354Z,95800.67
2019-06-08T00:10:23.558Z,95794.91
2019-06-08T00:12:49.881Z,95798.20
2019-06-08T00:15:20.181Z,95797.52
2019-06-08T00:17:49.475Z,95791.32
2019-06-08T00:20:19.723Z,95794.06
2019-06-08T00:22:48.916Z,95795.05
2019-06-08T00:25:19.067Z,95797.73
2019-06-08T00:27:48.604Z,95803.95
2019-06-08T00:30:17.909Z,95804.31
2019-06-08T00:32:47.082Z,95810.23
2019-06-08T00:35:16.588Z,95809.61
2019-06-08T00:37:45.655Z,95807.55
2019-06-08T00:40:14.860Z,95810.19
2019-06-08T00:42:43.921Z,95821.12
2019-06-08T00:45:13.358Z,95821.03
2019-06-08T00:47:47.952Z,95835.08
2019-06-08T00:50:14.046Z,95837.33
2019-06-08T00:52:43.245Z,95844.40
2019-06-08T00:55:12.690Z,95847.28
2019-06-08T00:57:41.813Z,95850.55
2019-06-08T01:00:11.744Z,95847.03
2019-06-08T01:02:41.159Z,95857.88
2019-06-08T01:05:11.360Z,95870.41
2019-06-08T01:07:40.503Z,95872.31
2019-06-08T01:10:10.206Z,95874.06
2019-06-08T01:12:39.418Z,95868.93
2019-06-08T01:15:09.357Z,95882.58
2019-06-08T01:17:38.557Z,95884.53
2019-06-08T01:20:08.395Z,95889.39
2019-06-08T01:22:37.588Z,95892.80
2019-06-08T01:25:06.934Z,95890.89
2019-06-08T01:27:36.065Z,95898.66
2019-06-08T01:30:06.143Z,95897.15
2019-06-08T01:32:35.283Z,95910.48
2019-06-08T01:35:04.524Z,95911.75
2019-06-08T01:37:33.647Z,95906.56
2019-06-08T01:40:02.911Z,95905.29
2019-06-08T01:42:32.139Z,95916.03
2019-06-08T01:45:01.278Z,95920.45
2019-06-08T01:47:30.403Z,95913.07
2019-06-08T01:49:59.521Z,95908.87
2019-06-08T01:52:28.891Z,95910.18
2019-06-08T01:54:58.071Z,95907.53
2019-06-08T01:57:27.265Z,95907.67
2019-06-08T01:59:56.401Z,95915.70
2019-06-08T02:02:25.901Z,95913.60
2019-06-08T02:04:55.169Z,95919.80
2019-06-08T02:07:24.287Z,95920.20
2019-06-08T02:09:53.453Z,95925.27
2019-06-08T02:12:22.614Z,95934.88
2019-06-08T02:14:51.756Z,95934.16
2019-06-08T02:17:20.960Z,95941.53
2019-06-08T02:19:50.175Z,95936.27
2019-06-08T02:22:19.437Z,95949.35
2019-06-08T02:24:48.605Z,95952.27
2019-06-08T02:27:17.751Z,95948.09
2019-06-08T02:29:46.996Z,95952.58
2019-06-08T02:32:16.170Z,95956.39
2019-06-08T02:34:45.244Z,95965.30
2019-06-08T02:37:14.422Z,95963.06
2019-06-08T02:39:43.549Z,95960.48
2019-06-08T02:42:12.657Z,95965.88
2019-06-08T02:44:41.743Z,95969.52
2019-06-08T02:47:10.856Z,95971.22
2019-06-08T02:49:40.023Z,95968.11
2019-06-08T02:52:10.340Z,95975.69
2019-06-08T02:54:41.144Z,95977.13
2019-06-08T02:57:11.930Z,95980.20
2019-06-08T02:59:42.792Z,95985.33
2019-06-08T03:02:13.405Z,95982.00
2019-06-08T03:04:43.315Z,95988.72
2019-06-08T03:07:15.576Z,95997.28
2019-06-08T03:09:48.104Z,95997.31
2019-06-08T03:12:20.634Z,96000.33
2019-06-08T03:14:51.481Z,96004.02
2019-06-08T03:17:20.571Z,96011.48
2019-06-08T03:19:49.667Z,96005.70
2019-06-08T03:22:18.931Z,96010.84
2019-06-08T03:24:48.063Z,96013.70
2019-06-08T03:27:17.208Z,96017.33
2019-06-08T03:29:46.341Z,96019.56
2019-06-08T03:32:15.448Z,96018.77
2019-06-08T03:34:53.889Z,96028.38
2019-06-08T03:37:15.510Z,96028.20
2019-06-08T03:39:45.331Z,96026.81
2019-06-08T03:42:14.793Z,96019.24
2019-06-08T03:44:44.930Z,96032.03
2019-06-08T03:47:14.202Z,96039.31
2019-06-08T03:49:54.846Z,96037.16
2019-06-08T03:52:14.146Z,96047.56
2019-06-08T03:54:45.279Z,96052.73
2019-06-08T03:57:14.242Z,96052.42
2019-06-08T03:59:45.619Z,96058.09
2019-06-08T04:02:14.194Z,96056.93
2019-06-08T04:04:43.805Z,96065.45
2019-06-08T04:07:13.013Z,96068.48
2019-06-08T04:09:43.492Z,96069.16
2019-06-08T04:12:12.751Z,96064.14
2019-06-08T04:14:42.235Z,96066.66
2019-06-08T04:17:12.778Z,96074.83
2019-06-08T04:20:04.985Z,96079.12
2019-06-08T04:22:12.832Z,96075.70
2019-06-08T04:24:42.461Z,96081.23
2019-06-08T04:27:12.923Z,96078.56
2019-06-08T04:29:43.867Z,96079.17
2019-06-08T04:32:12.988Z,96079.81
2019-06-08T04:34:42.938Z,96083.39
2019-06-08T04:37:15.699Z,96081.64
2019-06-08T04:39:44.482Z,96090.28
2019-06-08T04:42:13.860Z,96095.70
2019-06-08T04:44:44.457Z,96090.24
2019-06-08T04:47:13.706Z,96094.39
2019-06-08T04:49:43.417Z,96098.61
2019-06-08T04:52:13.671Z,96108.10
2019-06-08T04:54:42.818Z,96103.39
2019-06-08T04:57:11.933Z,96112.80
2019-06-08T04:59:41.712Z,96117.47
2019-06-08T05:02:11.931Z,96124.92
2019-06-08T05:04:41.090Z,96131.50
2019-06-08T05:07:10.224Z,96139.72
2019-06-08T05:09:40.994Z,96138.84
2019-06-08T05:12:10.259Z,96141.91
2019-06-08T05:14:39.359Z,96143.55
2019-06-08T05:17:08.589Z,96151.84
2019-06-08T05:19:39.145Z,96148.33
2019-06-08T05:22:08.326Z,96151.68
2019-06-08T05:24:37.457Z,96158.86
2019-06-08T05:27:06.588Z,96158.02
2019-06-08T05:29:35.747Z,96153.78
2019-06-08T05:32:05.168Z,96159.80
2019-06-08T05:34:34.303Z,96166.86
2019-06-08T05:37:03.463Z,96167.19
2019-06-08T05:39:32.585Z,96178.50
2019-06-08T05:42:01.793Z,96176.79
2019-06-08T05:44:30.920Z,96177.39
2019-06-08T05:47:00.199Z,96184.14
2019-06-08T05:49:29.397Z,96183.13
2019-06-08T05:51:58.530Z,96188.77
2019-06-08T05:54:27.649Z,96198.14
2019-06-08T05:56:56.795Z,96199.11
2019-06-08T05:59:26.003Z,96198.70
2019-06-08T06:01:55.269Z,96209.00
2019-06-08T06:04:24.417Z,96209.28
2019-06-08T06:06:53.583Z,96213.47
2019-06-08T06:09:22.683Z,96218.22
2019-06-08T06:11:51.833Z,96218.38
2019-06-08T06:14:21.012Z,96220.23
2019-06-08T06:16:51.351Z,96229.13
2019-06-08T06:19:20.585Z,96226.41
2019-06-08T06:21:49.694Z,96231.22
2019-06-08T06:24:18.828Z,96238.83
2019-06-08T06:26:47.929Z,96239.80
2019-06-08T06:29:17.054Z,96245.74
2019-06-08T06:31:46.234Z,96242.08
2019-06-08T06:34:15.424Z,96246.33
2019-06-08T06:36:45.841Z,96242.10
2019-06-08T06:39:15.002Z,96247.94
2019-06-08T06:41:44.168Z,96242.75
2019-06-08T06:44:13.281Z,96246.55
2019-06-08T06:46:42.395Z,96252.65
2019-06-08T06:49:11.590Z,96253.41
2019-06-08T06:51:40.809Z,96251.49
2019-06-08T06:54:09.937Z,96262.16
2019-06-08T06:56:39.063Z,96266.17
2019-06-08T06:59:08.227Z,96271.12
2019-06-08T07:01:37.387Z,96274.59
2019-06-08T07:04:06.528Z,96280.94
2019-06-08T07:06:35.738Z,96284.81
2019-06-08T07:09:06.491Z,96278.70
2019-06-08T07:11:35.757Z,96274.53
2019-06-08T07:14:04.855Z,96278.77
2019-06-08T07:16:33.998Z,96281.69
2019-06-08T07:19:03.350Z,96283.81
2019-06-08T07:21:41.397Z,96278.78
2019-06-08T07:24:03.355Z,96276.78
2019-06-08T07:26:32.466Z,96277.70
2019-06-08T07:29:01.710Z,96284.05
2019-06-08T07:31:30.959Z,96286.56
2019-06-08T07:34:00.197Z,96291.47
2019-06-08T07:36:29.342Z,96291.95
2019-06-08T07:38:59.618Z,96295.54
2019-06-08T07:41:28.804Z,96292.62
2019-06-08T07:43:58.513Z,96295.82
2019-06-08T07:46:27.730Z,96298.24
2019-06-08T07:48:56.927Z,96294.01
2019-06-08T07:51:26.058Z,96299.05
2019-06-08T07:53:55.765Z,96299.25
2019-06-08T07:56:25.043Z,96293.15
2019-06-08T07:58:55.025Z,96299.43
2019-06-08T08:01:35.934Z,96293.52
2019-06-08T08:03:56.310Z,96292.03
2019-06-08T08:06:25.602Z,96297.73
2019-06-08T08:08:54.929Z,96299.11
2019-06-08T08:11:24.189Z,96296.93
2019-06-08T08:13:54.744Z,96298.13
2019-06-08T08:16:23.979Z,96304.09
2019-06-08T08:18:53.428Z,96297.17
2019-06-08T08:21:26.194Z,96306.03
2019-06-08T08:23:55.181Z,96300.88
2019-06-08T08:26:27.131Z,96300.53
2019-06-08T08:28:59.709Z,96303.31
2019-06-08T08:31:27.849Z,96304.22
2019-06-08T08:33:59.707Z,96312.97
2019-06-08T08:36:29.435Z,96311.27
2019-06-08T08:39:01.021Z,96318.54
2019-06-08T08:41:29.921Z,96317.54
2019-06-08T08:44:04.170Z,96319.11
2019-06-08T08:46:30.053Z,96324.09
2019-06-08T08:49:08.920Z,96319.70
2019-06-08T08:51:30.991Z,96322.09
2019-06-08T08:54:04.799Z,96320.77
2019-06-08T08:56:31.016Z,96330.32
2019-06-08T08:59:01.660Z,96336.64
2019-06-08T09:01:31.134Z,96328.52
2019-06-08T09:04:03.725Z,96322.22
2019-06-08T09:06:31.235Z,96331.04
2019-06-08T09:09:03.238Z,96326.33
2019-06-08T09:11:31.327Z,96323.99
2019-06-08T09:14:05.261Z,96326.27
2019-06-08T09:16:31.492Z,96322.77
2019-06-08T09:19:02.893Z,96326.33
2019-06-08T09:21:31.752Z,96330.61
2019-06-08T09:24:03.858Z,96322.44
2019-06-08T09:26:31.778Z,96330.23
2019-06-08T09:29:03.333Z,96325.73
2019-06-08T09:31:31.812Z,96337.41
2019-06-08T09:34:09.405Z,96339.12
2019-06-08T09:36:31.928Z,96346.98
2019-06-08T09:39:03.109Z,96357.25
2019-06-08T09:41:32.125Z,96350.12
2019-06-08T09:44:04.460Z,96348.27
2019-06-08T09:46:32.221Z,96354.55
2019-06-08T09:49:07.618Z,96352.05
2019-06-08T09:51:32.254Z,96349.78
2019-06-08T09:54:05.668Z,96356.73
2019-06-08T09:56:32.261Z,96356.13
2019-06-08T09:59:04.139Z,96356.39
2019-06-08T10:01:32.252Z,96348.36
2019-06-08T10:04:02.813Z,96347.16
2019-06-08T10:06:32.311Z,96348.09
2019-06-08T10:09:02.772Z,96346.36
2019-06-08T10:11:32.105Z,96354.34
2019-06-08T10:14:04.729Z,96344.97
2019-06-08T10:16:32.224Z,96345.97
2019-06-08T10:19:03.921Z,96347.74
2019-06-08T10:21:32.897Z,96346.81
2019-06-08T10:24:04.718Z,96348.35
2019-06-08T10:26:33.445Z,96351.70
2019-06-08T10:29:05.153Z,96352.05
2019-06-08T10:31:39.806Z,96345.15
2019-06-08T10:34:06.066Z,96344.17
2019-06-08T10:36:35.325Z,96344.80
2019-06-08T10:39:07.284Z,96350.14
2019-06-08T10:41:38.690Z,96347.98
2019-06-08T10:44:08.583Z,96351.94
2019-06-08T10:46:40.654Z,96348.98
2019-06-08T10:49:13.991Z,96350.84
2019-06-08T10:51:41.120Z,96347.31
2019-06-08T10:54:11.435Z,96349.62
2019-06-08T10:56:40.747Z,96358.05
2019-06-08T10:59:12.259Z,96353.23
2019-06-08T11:01:40.959Z,96356.37
2019-06-08T11:04:10.069Z,96355.00
2019-06-08T11:06:40.353Z,96347.80
2019-06-08T11:09:13.215Z,96342.98
2019-06-08T11:11:41.021Z,96347.26
2019-06-08T11:14:12.754Z,96344.39
2019-06-08T11:16:41.099Z,96347.72
2019-06-08T11:19:12.986Z,96343.05
2019-06-08T11:21:41.162Z,96338.83
2019-06-08T11:24:21.581Z,96338.62
2019-06-08T11:26:41.443Z,96333.03
2019-06-08T11:29:13.687Z,96332.02
2019-06-08T11:31:41.491Z,96325.16
2019-06-08T11:34:10.822Z,96324.37
2019-06-08T11:36:39.968Z,96322.64
2019-06-08T11:39:12.547Z,96316.49
2019-06-08T11:41:40.160Z,96315.09
2019-06-08T11:44:12.412Z,96315.95
2019-06-08T11:46:42.534Z,96319.22
2019-06-08T11:49:14.494Z,96315.57
2019-06-08T11:51:41.849Z,96311.52
2019-06-08T11:54:27.341Z,96309.80
2019-06-08T11:56:42.265Z,96305.30
2019-06-08T11:59:14.343Z,96303.74
2019-06-08T12:01:42.899Z,96305.94
2019-06-08T12:04:12.048Z,96295.62
2019-06-08T12:06:41.204Z,96300.64
2019-06-08T12:09:12.280Z,96310.25
2019-06-08T12:11:41.300Z,96304.52
2019-06-08T12:14:11.449Z,96300.75
2019-06-08T12:16:41.379Z,96299.26
2019-06-08T12:19:14.077Z,96299.64
2019-06-08T12:21:41.560Z,96304.01
2019-06-08T12:24:10.724Z,96297.28
2019-06-08T12:26:39.886Z,96297.24
2019-06-08T12:29:11.511Z,96293.67
2019-06-08T12:31:39.891Z,96290.27
2019-06-08T12:34:09.254Z,96284.95
2019-06-08T12:36:38.383Z,96293.19
2019-06-08T12:39:08.092Z,96293.12
2019-06-08T12:41:37.726Z,96287.16
2019-06-08T12:44:09.784Z,96285.39
2019-06-08T12:46:41.310Z,96288.41
2019-06-08T12:49:11.254Z,96275.80
2019-06-08T12:51:39.873Z,96273.37
2019-06-08T12:54:11.048Z,96279.26
2019-06-08T12:56:39.876Z,96276.59
2019-06-08T12:59:12.977Z,96278.75
2019-06-08T13:01:40.002Z,96270.57
2019-06-08T13:04:09.553Z,96280.98
2019-06-08T13:06:40.749Z,96279.44
2019-06-08T13:09:11.618Z,96276.65
2019-06-08T13:11:40.715Z,96272.01
2019-06-08T13:14:11.294Z,96276.83
2019-06-08T13:16:41.244Z,96273.91
2019-06-08T13:19:12.549Z,96269.95
2019-06-08T13:21:41.450Z,96277.73
2019-06-08T13:24:11.371Z,96265.56
2019-06-08T13:26:40.692Z,96277.45
2019-06-08T13:29:11.011Z,96264.98
2019-06-08T13:31:40.801Z,96267.77
2019-06-08T13:34:11.091Z,96276.31
2019-06-08T13:36:42.329Z,96266.52
2019-06-08T13:39:12.128Z,96263.77
2019-06-08T13:41:42.450Z,96272.61
2019-06-08T13:44:11.649Z,96271.34
2019-06-08T13:46:40.812Z,96274.30
2019-06-08T13:49:09.958Z,96273.55
2019-06-08T13:51:39.137Z,96266.34
2019-06-08T13:54:08.659Z,96271.58
2019-06-08T13:56:38.598Z,96263.41
2019-06-08T13:59:08.124Z,96265.39
2019-06-08T14:01:37.924Z,96263.89
2019-06-08T14:04:08.957Z,96262.28
2019-06-08T14:06:38.206Z,96261.06
2019-06-08T14:09:08.300Z,96262.38
2019-06-08T14:11:37.662Z,96256.68
2019-06-08T14:14:08.540Z,96253.13
2019-06-08T14:16:38.949Z,96248.09
2019-06-08T14:19:08.679Z,96246.94
2019-06-08T14:21:41.624Z,96244.28
2019-06-08T14:24:08.652Z,96240.82
2019-06-08T14:26:37.857Z,96256.60
2019-06-08T14:29:08.328Z,96260.89
2019-06-08T14:31:38.210Z,96262.02
2019-06-08T14:34:10.012Z,96246.00
2019-06-08T14:36:40.993Z,96254.61
2019-06-08T14:39:11.273Z,96254.20
2019-06-08T14:41:40.776Z,96250.37
2019-06-08T14:44:09.906Z,96245.82
2019-06-08T14:46:41.433Z,96245.86
2019-06-08T14:49:10.030Z,96251.75
2019-06-08T14:51:52.140Z,96255.33
2019-06-08T14:54:25.067Z,96243.70
2019-06-08T14:56:52.611Z,96239.67
2019-06-08T14:59:22.540Z,96236.11
2019-06-08T15:01:52.850Z,96235.27
2019-06-08T15:04:23.884Z,96227.49
2019-06-08T15:06:52.882Z,96228.78
2019-06-08T15:09:23.334Z,96226.83
2019-06-08T15:11:52.582Z,96223.58
2019-06-08T15:14:21.743Z,96221.53
2019-06-08T15:16:50.939Z,96222.23
2019-06-08T15:19:20.315Z,96215.30
2019-06-08T15:21:49.684Z,96219.34
2019-06-08T15:24:18.843Z,96216.39
2019-06-08T15:26:50.943Z,96216.02
2019-06-08T15:29:20.821Z,96220.63
2019-06-08T15:31:50.034Z,96211.44
2019-06-08T15:34:19.234Z,96208.30
2019-06-08T15:36:48.377Z,96204.13
2019-06-08T15:39:18.076Z,96201.70
2019-06-08T15:41:48.832Z,96202.36
2019-06-08T15:44:21.257Z,96203.14
2019-06-08T15:46:48.999Z,96202.02
2019-06-08T15:49:18.627Z,96196.17
2019-06-08T15:51:48.250Z,96206.39
2019-06-08T15:54:17.447Z,96202.95
2019-06-08T15:56:51.777Z,96200.55
2019-06-08T15:59:17.640Z,96196.77
2019-06-08T16:01:46.847Z,96191.68
2019-06-08T16:04:15.966Z,96201.89
2019-06-08T16:06:45.123Z,96199.09
2019-06-08T16:09:14.267Z,96194.75
2019-06-08T16:11:43.434Z,96196.01
2019-06-08T16:14:12.527Z,96198.31
2019-06-08T16:16:41.719Z,96192.13
2019-06-08T16:19:10.918Z,96189.14
2019-06-08T16:21:40.039Z,96188.84
2019-06-08T16:24:09.220Z,96192.91
2019-06-08T16:26:52.289Z,96194.25
2019-06-08T16:29:09.265Z,96189.25
2019-06-08T16:31:39.396Z,96196.24
2019-06-08T16:34:08.581Z,96190.87
2019-06-08T16:36:37.713Z,96192.20
2019-06-08T16:39:08.603Z,96195.91
2019-06-08T16:41:37.879Z,96193.05
2019-06-08T16:44:07.490Z,96197.95
2019-06-08T16:46:36.799Z,96200.41
2019-06-08T16:49:06.120Z,96195.83
2019-06-08T16:51:35.774Z,96199.16
2019-06-08T16:54:05.063Z,96194.66
2019-06-08T16:56:34.341Z,96196.00
2019-06-08T16:59:03.599Z,96192.65
2019-06-08T17:01:33.009Z,96194.80
2019-06-08T17:04:02.212Z,96191.51
2019-06-08T17:06:31.366Z,96194.99
2019-06-08T17:09:00.545Z,96194.99
2019-06-08T17:11:29.762Z,96195.00
2019-06-08T17:13:58.909Z,96195.00
2019-06-08T17:16:28.083Z,96197.09
2019-06-08T17:18:57.248Z,96184.35
2019-06-08T17:21:26.472Z,96184.42
2019-06-08T17:23:55.705Z,96183.44
2019-06-08T17:26:24.862Z,96181.76
2019-06-08T17:28:54.186Z,96176.58
2019-06-08T17:31:23.437Z,96180.49
2019-06-08T17:33:52.654Z,96183.11
2019-06-08T17:36:21.779Z,96182.78
2019-06-08T17:38:51.071Z,96184.31
2019-06-08T17:41:20.275Z,96188.52
2019-06-08T17:43:50.906Z,96186.02
2019-06-08T17:46:20.094Z,96181.48
2019-06-08T17:48:49.322Z,96189.27
2019-06-08T17:51:18.462Z,96185.16
2019-06-08T17:53:47.616Z,96180.16
2019-06-08T17:56:16.765Z,96176.95
2019-06-08T17:58:45.975Z,96184.56
2019-06-08T18:01:15.134Z,96178.73
2019-06-08T18:03:44.714Z,96180.45
2019-06-08T18:06:13.864Z,96183.90
2019-06-08T18:08:44.004Z,96184.56
2019-06-08T18:11:13.970Z,96181.18
2019-06-08T18:13:45.336Z,96178.40
2019-06-08T18:16:14.242Z,96185.08
2019-06-08T18:18:44.274Z,96180.47
2019-06-08T18:21:14.322Z,96179.91
2019-06-08T18:23:44.130Z,96186.77
2019-06-08T18:26:14.417Z,96182.67
2019-06-08T18:28:44.118Z,96179.06
2019-06-08T18:31:14.708Z,96180.00
2019-06-08T18:33:45.704Z,96172.48
2019-06-08T18:36:16.988Z,96188.95
2019-06-08T18:38:48.377Z,96190.36
2019-06-08T18:41:17.702Z,96190.95
2019-06-08T18:43:49.554Z,96197.33
2019-06-08T18:46:18.172Z,96188.86
2019-06-08T18:48:49.237Z,96197.70
2019-06-08T18:51:18.415Z,96196.56
2019-06-08T18:54:06.809Z,96196.38
2019-06-08T18:56:18.502Z,96203.09
2019-06-08T18:58:51.562Z,96199.94
2019-06-08T19:01:22.905Z,96196.70
2019-06-08T19:03:52.296Z,96199.36
2019-06-08T19:06:20.620Z,96197.14
2019-06-08T19:08:51.006Z,96195.61
2019-06-08T19:11:20.299Z,96204.76
2019-06-08T19:13:52.464Z,96201.05
2019-06-08T19:16:22.763Z,96201.97
2019-06-08T19:18:52.787Z,96199.74
2019-06-08T19:21:22.242Z,96206.77
2019-06-08T19:23:51.469Z,96211.88
2019-06-08T19:26:20.778Z,96206.98
2019-06-08T19:28:53.995Z,96214.35
2019-06-08T19:31:22.414Z,96214.88
2019-06-08T19:33:53.355Z,96217.66
2019-06-08T19:36:22.521Z,96220.67
2019-06-08T19:38:54.499Z,96225.52
2019-06-08T19:41:22.694Z,96231.62
2019-06-08T19:43:54.637Z,96239.52
2019-06-08T19:46:22.994Z,96241.24
2019-06-08T19:48:54.832Z,96253.38
2019-06-08T19:51:23.636Z,96253.38
2019-06-08T19:53:54.979Z,96259.01
2019-06-08T19:56:23.807Z,96260.66
2019-06-08T19:59:01.729Z,96253.80
2019-06-08T20:01:23.940Z,96255.03
2019-06-08T20:03:53.352Z,96252.25
2019-06-08T20:06:22.464Z,96257.16
2019-06-08T20:08:51.718Z,96261.05
2019-06-08T20:11:20.908Z,96267.59
2019-06-08T20:13:51.526Z,96260.18
2019-06-08T20:16:21.265Z,96261.48
2019-06-08T20:18:51.713Z,96259.87
2019-06-08T20:21:21.472Z,96253.25
2019-06-08T20:23:50.923Z,96258.52
2019-06-08T20:26:20.205Z,96254.95
2019-06-08T20:28:52.526Z,96258.11
2019-06-08T20:31:22.102Z,96256.88
2019-06-08T20:33:52.190Z,96255.28
2019-06-08T20:36:21.494Z,96254.36
2019-06-08T20:38:50.955Z,96256.03
2019-06-08T20:41:20.350Z,96253.77
2019-06-08T20:43:51.925Z,96255.14
2019-06-08T20:46:20.524Z,96253.48
2019-06-08T20:48:51.321Z,96253.70
2019-06-08T20:51:21.059Z,96249.48
2019-06-08T20:53:50.924Z,96249.14
2019-06-08T20:56:21.084Z,96245.95
2019-06-08T20:58:51.380Z,96237.55
2019-06-08T21:01:21.258Z,96240.42
2019-06-08T21:03:51.579Z,96238.31
2019-06-08T21:06:21.421Z,96243.55
2019-06-08T21:08:51.914Z,96252.09
2019-06-08T21:11:21.596Z,96241.33
2019-06-08T21:13:52.505Z,96251.20
2019-06-08T21:16:21.791Z,96250.33
2019-06-08T21:18:51.134Z,96248.27
2019-06-08T21:21:20.268Z,96250.36
2019-06-08T21:23:53.005Z,96242.71
2019-06-08T21:26:20.630Z,96246.16
2019-06-08T21:28:54.125Z,96245.70
2019-06-08T21:31:22.874Z,96236.17
2019-06-08T21:33:53.712Z,96236.17
2019-06-08T21:36:23.091Z,96242.77
2019-06-08T21:38:55.372Z,96245.70
2019-06-08T21:41:23.239Z,96251.11
2019-06-08T21:43:54.770Z,96247.95
2019-06-08T21:46:23.341Z,96246.84
2019-06-08T21:48:53.497Z,96250.67
2019-06-08T21:51:26.186Z,96248.61
2019-06-08T21:53:54.414Z,96250.14
2019-06-08T21:56:23.565Z,96255.95
2019-06-08T21:58:53.095Z,96255.91
2019-06-08T22:01:28.305Z,96247.73
2019-06-08T22:03:58.974Z,96257.88
2019-06-08T22:06:27.737Z,96251.23
2019-06-08T22:09:00.807Z,96249.17
2019-06-08T22:11:27.735Z,96252.34
2019-06-08T22:13:59.328Z,96247.98
2019-06-08T22:16:27.813Z,96252.29
2019-06-08T22:18:59.647Z,96254.18
2019-06-08T22:21:28.166Z,96258.88
2019-06-08T22:23:59.403Z,96257.74
2019-06-08T22:26:28.341Z,96262.22
2019-06-08T22:28:59.532Z,96266.39
2019-06-08T22:31:28.871Z,96250.73
2019-06-08T22:34:00.331Z,96262.70
2019-06-08T22:36:28.974Z,96260.25
2019-06-08T22:39:00.565Z,96258.41
2019-06-08T22:41:29.091Z,96260.65
2019-06-08T22:44:00.789Z,96258.88
2019-06-08T22:46:29.178Z,96256.69
2019-06-08T22:49:01.987Z,96254.53
2019-06-08T22:51:29.193Z,96254.80
2019-06-08T22:54:00.418Z,96248.88
2019-06-08T22:56:29.319Z,96244.96
2019-06-08T22:59:03.590Z,96242.72
2019-06-08T23:01:29.340Z,96244.44
2019-06-08T23:04:00.927Z,96246.23
2019-06-08T23:06:29.568Z,96246.41
2019-06-08T23:09:00.949Z,96251.64
2019-06-08T23:11:29.606Z,96248.78
2019-06-08T23:14:01.028Z,96248.60
2019-06-08T23:16:30.689Z,96249.00
2019-06-08T23:19:00.598Z,96249.39
2019-06-08T23:21:32.083Z,96249.27
2019-06-08T23:24:02.493Z,96249.19
2019-06-08T23:26:32.204Z,96247.55
2019-06-08T23:29:02.337Z,96244.91
2019-06-08T23:31:31.580Z,96252.30
2019-06-08T23:34:03.893Z,96254.02
2019-06-08T23:36:46.589Z,96244.91
2019-06-08T23:39:03.128Z,96241.53
2019-06-08T23:41:32.253Z,96243.72
2019-06-08T23:44:01.495Z,96241.48
2019-06-08T23:46:30.633Z,96248.52
2019-06-08T23:49:01.898Z,96238.45
2019-06-08T23:51:30.723Z,96240.30
2019-06-08T23:54:02.321Z,96233.04
2019-06-08T23:56:30.725Z,96234.23
2019-06-08T23:59:01.311Z,96231.06
